Saint-Hyacinthe, Canada
Current Conditions -  °F | °C
As of 11:00 PM on Wednesday 26 Nov 2014 (Local Time) from CYHU Reporting Station
Overcast Overcast  
Wind Chill: 20°   Ceiling: 7500
Heat Index: 30°   Visibility: 9mi
Dew Point: 21°   Wind: 13mph
Humidity: 69%   Direction: 30°NNE
Pressure: 30.03"   Gusts: NA
Location:  45.62°N, 72.95°W
Report Text: CYHU 270400Z AUTO 03011KT 9SM OVC075 M01/M06 A3003 RMK SLP170
Loading
Personal Weather Stations






























Interactive Weather Map New forecast layout! Learn more

10-Day Weather Forecast

Advertisements
Track Severe Weather on mobile